Time;durP1;ratioP1;P1;durP2;ratioP2;P2;SDS_P1;SDS_P2;PMS_P1;PMS_P2;Temp;Humidity;BMP_temperature;BMP_pressure;BME280_temperature;BME280_humidity;BME280_pressure;Samples;Min_cycle;Max_cycle;Signal;HPM_P1;HPM_P2
2021/03/16 00:00:50;;;;;;;7.35;3.65;;;;;;;5.31;69.87;100598.72;5039536;28;20061;-86
2021/03/16 00:03:18;;;;;;;9.93;3.60;;;;;;;5.34;69.63;100597.78;5039540;28;20064;-87
2021/03/16 00:05:45;;;;;;;13.73;4.90;;;;;;;5.29;69.02;100596.13;5041477;28;20073;-88
2021/03/16 00:08:12;;;;;;;9.07;4.25;;;;;;;5.24;70.04;100600.59;5041538;28;20034;-87
2021/03/16 00:10:40;;;;;;;13.23;4.63;;;;;;;5.20;70.50;100604.19;5045513;28;20092;-86
2021/03/16 00:13:07;;;;;;;13.40;4.30;;;;;;;5.20;70.77;100600.69;5050593;28;20055;-86
2021/03/16 00:15:33;;;;;;;11.65;4.13;;;;;;;5.22;70.23;100605.00;5019044;28;20068;-86
2021/03/16 00:18:02;;;;;;;10.00;3.88;;;;;;;5.21;70.14;100599.78;5037196;28;20045;-86
2021/03/16 00:20:29;;;;;;;12.95;4.25;;;;;;;5.18;70.22;100606.00;5035163;28;20080;-86
2021/03/16 00:22:56;;;;;;;12.68;4.32;;;;;;;5.15;70.19;100611.31;5037160;28;21338;-85
2021/03/16 00:25:22;;;;;;;12.30;4.55;;;;;;;5.11;70.98;100607.00;5011118;28;20130;-86
2021/03/16 00:27:49;;;;;;;10.07;3.90;;;;;;;5.17;70.61;100613.91;5033502;28;20063;-85
2021/03/16 00:30:16;;;;;;;15.85;4.15;;;;;;;5.16;71.06;100615.66;5037010;28;20055;-85
2021/03/16 00:32:43;;;;;;;7.30;4.47;;;;;;;5.19;71.06;100622.63;5038319;28;20026;-86
2021/03/16 00:35:09;;;;;;;11.82;4.18;;;;;;;5.21;71.17;100632.16;5036541;28;20163;-84
2021/03/16 00:37:36;;;;;;;10.68;4.35;;;;;;;5.27;70.92;100631.16;5033066;28;20061;-84
2021/03/16 00:40:04;;;;;;;13.35;4.70;;;;;;;5.27;70.59;100624.16;5031073;28;20080;-87
2021/03/16 00:42:31;;;;;;;13.45;4.45;;;;;;;5.27;71.12;100633.78;5028219;28;20079;-86
2021/03/16 00:44:58;;;;;;;10.88;4.22;;;;;;;5.28;71.14;100636.41;5039818;28;20048;-86
2021/03/16 00:47:24;;;;;;;8.30;3.88;;;;;;;5.27;70.43;100634.66;5052693;28;20025;-87
2021/03/16 00:49:51;;;;;;;12.07;4.60;;;;;;;5.25;70.47;100631.19;5053497;28;20081;-87
2021/03/16 00:52:18;;;;;;;10.75;3.85;;;;;;;5.18;71.04;100639.25;5055290;28;20064;-86
2021/03/16 00:54:44;;;;;;;8.63;3.83;;;;;;;5.14;71.59;100656.81;5042196;28;20049;-84
2021/03/16 00:57:12;;;;;;;12.77;3.70;;;;;;;5.18;70.15;100642.75;5044774;28;20084;-84
2021/03/16 00:59:38;;;;;;;11.02;3.85;;;;;;;5.20;70.19;100654.06;5042438;28;20486;-85
2021/03/16 01:02:04;;;;;;;14.10;4.15;;;;;;;5.18;70.35;100647.13;5022587;28;20080;-86
2021/03/16 01:04:31;;;;;;;8.93;4.82;;;;;;;5.14;71.03;100654.19;5042838;28;20054;-87
2021/03/16 01:06:58;;;;;;;9.88;3.70;;;;;;;5.14;71.56;100662.06;5044126;28;20111;-86
2021/03/16 01:09:25;;;;;;;13.43;4.70;;;;;;;5.12;71.74;100663.88;5045869;28;20045;-85
2021/03/16 01:11:51;;;;;;;11.40;3.97;;;;;;;5.12;70.94;100658.63;5039777;28;20049;-86
2021/03/16 01:14:17;;;;;;;10.13;3.33;;;;;;;5.09;71.03;100658.66;5043026;28;20129;-87
2021/03/16 01:16:44;;;;;;;11.20;3.47;;;;;;;5.04;71.07;100665.75;5040063;28;20037;-86
2021/03/16 01:19:12;;;;;;;9.18;3.85;;;;;;;5.05;71.49;100672.75;5046896;28;20037;-87
2021/03/16 01:21:39;;;;;;;10.50;3.60;;;;;;;5.02;71.70;100671.97;5050576;28;20057;-87
2021/03/16 01:24:07;;;;;;;12.88;3.85;;;;;;;5.00;71.86;100674.63;5049676;28;20045;-87
2021/03/16 01:26:35;;;;;;;9.13;3.95;;;;;;;5.00;71.82;100673.75;5031543;28;20064;-86
2021/03/16 01:29:02;;;;;;;11.75;4.50;;;;;;;4.99;72.09;100675.50;5043064;28;20092;-85
2021/03/16 01:31:28;;;;;;;10.95;3.90;;;;;;;5.01;71.74;100678.09;5031878;28;20545;-86
2021/03/16 01:33:55;;;;;;;9.80;3.20;;;;;;;5.02;71.40;100683.31;5043262;28;20092;-85
2021/03/16 01:36:21;;;;;;;10.18;3.20;;;;;;;5.02;71.40;100683.31;5039205;28;20096;-87
2021/03/16 01:38:48;;;;;;;12.90;3.55;;;;;;;5.08;70.99;100684.94;5042934;28;20050;-85
2021/03/16 01:41:15;;;;;;;5.15;2.55;;;;;;;5.13;70.79;100688.34;5041847;28;20502;-86
2021/03/16 01:43:43;;;;;;;5.18;3.17;;;;;;;5.17;70.72;100680.41;5030121;28;20060;-85
2021/03/16 01:46:09;;;;;;;7.22;3.08;;;;;;;5.24;70.67;100696.88;5042483;28;20065;-84
2021/03/16 01:48:38;;;;;;;8.43;2.90;;;;;;;5.29;70.53;100693.25;5026125;28;20069;-85
2021/03/16 01:51:11;;;;;;;8.32;2.78;;;;;;;5.33;70.77;100693.22;5045244;28;20895;-85
2021/03/16 01:53:40;;;;;;;8.63;3.25;;;;;;;5.40;70.88;100692.16;5057323;28;20065;-85
2021/03/16 01:56:21;;;;;;;10.27;3.58;;;;;;;5.52;70.67;100695.38;5046880;28;20073;-85
2021/03/16 01:58:48;;;;;;;11.93;3.67;;;;;;;5.51;71.50;100703.34;5051477;28;20029;-84
2021/03/16 02:01:15;;;;;;;8.38;3.65;;;;;;;5.51;71.72;100700.72;5046410;28;20080;-85
2021/03/16 02:03:41;;;;;;;14.65;3.75;;;;;;;5.55;71.66;100699.72;5054856;28;20037;-84
2021/03/16 02:06:16;;;;;;;12.57;4.35;;;;;;;5.59;72.01;100712.75;5053953;28;20054;-84
2021/03/16 02:09:22;;;;;;;13.90;3.50;;;;;;;5.59;72.18;100702.25;5038203;28;20111;-88
2021/03/16 02:12:10;;;;;;;11.07;3.38;;;;;;;5.61;72.52;100699.59;5024557;28;20037;-86
2021/03/16 02:14:46;;;;;;;9.07;3.10;;;;;;;5.58;71.96;100700.53;5056846;28;20081;-86
2021/03/16 02:17:20;;;;;;;10.75;3.40;;;;;;;5.55;71.69;100694.47;5052185;28;20045;-85
2021/03/16 02:20:28;;;;;;;13.50;3.42;;;;;;;5.53;71.93;100705.00;5038393;28;20053;-87
2021/03/16 02:22:56;;;;;;;12.20;3.25;;;;;;;5.53;71.84;100698.88;5038601;28;20072;-84
2021/03/16 02:25:57;;;;;;;9.90;2.85;;;;;;;5.54;71.58;100704.09;5053841;28;20077;-83
2021/03/16 02:28:27;;;;;;;13.27;3.35;;;;;;;5.55;71.63;100713.72;5047229;28;20057;-86
2021/03/16 02:30:59;;;;;;;9.82;3.40;;;;;;;5.57;70.90;100724.19;5055308;28;20080;-86
2021/03/16 02:33:28;;;;;;;9.27;3.00;;;;;;;5.61;71.14;100720.63;5046836;28;20053;-83
2021/03/16 02:35:58;;;;;;;8.63;2.75;;;;;;;5.62;71.33;100722.34;5052082;28;20109;-86
2021/03/16 02:38:31;;;;;;;8.13;3.33;;;;;;;5.61;70.93;100720.63;5050794;28;20073;-86
2021/03/16 02:41:01;;;;;;;9.23;2.70;;;;;;;5.59;70.89;100714.53;5047261;28;20049;-84
2021/03/16 02:43:29;;;;;;;11.68;3.33;;;;;;;5.56;70.95;100732.97;5027736;28;20136;-85
2021/03/16 02:45:58;;;;;;;13.70;3.30;;;;;;;5.59;70.57;100725.03;5043267;28;20045;-84
2021/03/16 02:48:26;;;;;;;9.57;3.45;;;;;;;5.59;70.80;100728.53;5037746;28;20108;-84
2021/03/16 02:51:01;;;;;;;11.85;3.17;;;;;;;5.56;70.88;100735.59;5042008;28;20076;-85
2021/03/16 02:53:28;;;;;;;12.15;3.17;;;;;;;5.55;70.92;100724.22;5039860;28;20058;-85
2021/03/16 02:55:56;;;;;;;11.40;3.22;;;;;;;5.53;71.11;100739.16;5029190;28;20105;-87
2021/03/16 02:58:24;;;;;;;8.43;3.40;;;;;;;5.58;70.46;100746.94;5041968;28;20054;-86
2021/03/16 03:00:52;;;;;;;10.38;3.42;;;;;;;5.58;70.32;100742.56;5040136;28;20115;-85
2021/03/16 03:03:20;;;;;;;11.30;3.00;;;;;;;5.57;69.62;100737.34;5045572;28;20045;-86
2021/03/16 03:05:51;;;;;;;9.65;3.22;;;;;;;5.51;70.05;100742.72;5040072;28;20033;-88
2021/03/16 03:08:22;;;;;;;9.63;2.97;;;;;;;5.40;69.94;100736.81;5039599;28;20076;-85
2021/03/16 03:10:50;;;;;;;8.55;2.65;;;;;;;5.42;70.27;100749.03;5045211;28;20123;-85
2021/03/16 03:13:17;;;;;;;7.28;2.78;;;;;;;5.43;70.14;100744.63;5041495;28;20041;-88
2021/03/16 03:15:44;;;;;;;14.07;2.75;;;;;;;5.44;69.88;100746.38;5046735;28;20049;-86
2021/03/16 03:18:11;;;;;;;16.55;2.72;;;;;;;5.45;69.13;100742.84;5047270;28;20053;-86
2021/03/16 03:20:39;;;;;;;16.65;2.97;;;;;;;5.42;69.77;100745.53;5044294;28;20061;-84
2021/03/16 03:23:38;;;;;;;12.60;3.17;;;;;;;5.45;70.26;100750.72;5039501;28;20053;-86
2021/03/16 03:26:29;;;;;;;8.80;2.33;;;;;;;5.43;69.08;100753.38;5009774;28;20052;-85
2021/03/16 03:28:57;;;;;;;10.13;2.45;;;;;;;5.43;69.25;100763.88;5037216;28;20128;-85
2021/03/16 03:31:24;;;;;;;10.20;2.90;;;;;;;5.48;68.39;100767.28;5043080;28;20118;-85
2021/03/16 03:33:52;;;;;;;9.98;2.47;;;;;;;5.46;68.81;100765.59;5043170;28;20057;-85
2021/03/16 03:36:19;;;;;;;8.70;2.72;;;;;;;5.52;68.28;100768.06;5045432;28;20425;-85
2021/03/16 03:38:46;;;;;;;8.00;2.38;;;;;;;5.51;68.26;100782.13;5043534;28;20045;-85
2021/03/16 03:41:12;;;;;;;11.40;2.88;;;;;;;5.50;68.03;100783.03;5038494;28;20136;-85
2021/03/16 03:43:40;;;;;;;9.07;2.58;;;;;;;5.47;68.44;100791.81;5036140;28;20056;-85
2021/03/16 03:46:09;;;;;;;15.30;3.65;;;;;;;5.42;68.52;100791.03;5038607;28;20085;-87
2021/03/16 03:48:36;;;;;;;10.15;3.00;;;;;;;5.45;68.30;100798.00;5039632;28;20057;-86
2021/03/16 03:51:04;;;;;;;13.48;2.95;;;;;;;5.43;68.14;100797.16;5033649;28;20046;-86
2021/03/16 03:53:33;;;;;;;9.07;3.20;;;;;;;5.43;68.45;100789.28;5039300;28;20129;-88
2021/03/16 03:56:01;;;;;;;10.90;2.85;;;;;;;5.42;68.67;100811.19;5041982;28;20056;-85
2021/03/16 03:58:28;;;;;;;8.38;3.25;;;;;;;5.43;68.08;100800.66;5033212;28;20140;-84
2021/03/16 04:00:55;;;;;;;10.88;2.92;;;;;;;5.44;68.10;100794.50;5039364;28;20053;-86
2021/03/16 04:03:22;;;;;;;12.93;3.40;;;;;;;5.48;68.49;100805.81;5041768;28;20084;-85
2021/03/16 04:05:51;;;;;;;6.68;3.03;;;;;;;5.49;68.53;100802.31;5026423;28;20053;-86
2021/03/16 04:08:18;;;;;;;12.10;3.70;;;;;;;5.52;68.58;100802.22;5042143;28;20057;-86
2021/03/16 04:10:44;;;;;;;11.85;3.42;;;;;;;5.52;68.50;100802.22;5043941;28;20105;-87
2021/03/16 04:13:11;;;;;;;15.45;5.78;;;;;;;5.53;69.08;100796.06;5045592;28;20121;-85
2021/03/16 04:15:40;;;;;;;26.10;13.40;;;;;;;5.52;68.56;100799.59;5041092;28;20554;-87
2021/03/16 04:18:10;;;;;;;18.08;7.13;;;;;;;5.50;69.36;100806.66;5036457;28;20056;-86
2021/03/16 04:20:45;;;;;;;16.27;6.53;;;;;;;5.48;69.54;100803.19;5048088;28;20060;-87
2021/03/16 04:23:12;;;;;;;17.25;5.43;;;;;;;5.52;70.30;100807.47;5044146;28;20425;-88
2021/03/16 04:25:39;;;;;;;14.10;4.88;;;;;;;5.51;70.79;100808.41;5047321;28;20095;-87
2021/03/16 04:28:14;;;;;;;11.25;4.40;;;;;;;5.45;71.26;100825.13;5053967;28;20105;-84
2021/03/16 04:30:41;;;;;;;11.77;4.38;;;;;;;5.36;71.39;100816.53;5052618;28;20072;-85
2021/03/16 04:33:09;;;;;;;11.65;4.70;;;;;;;5.26;71.67;100816.72;5048474;28;20057;-84
2021/03/16 04:35:35;;;;;;;13.35;4.85;;;;;;;5.31;71.73;100824.53;5021250;28;20045;-85
2021/03/16 04:38:02;;;;;;;10.35;4.57;;;;;;;5.35;72.02;100833.22;5042154;28;20476;-86
2021/03/16 04:40:29;;;;;;;16.85;5.10;;;;;;;5.33;71.91;100829.75;5040421;28;20049;-87
2021/03/16 04:42:56;;;;;;;14.05;5.15;;;;;;;5.29;71.82;100839.44;5040997;28;20058;-85
2021/03/16 04:45:22;;;;;;;11.85;4.95;;;;;;;5.23;72.57;100839.53;5036143;28;20053;-84
2021/03/16 04:47:48;;;;;;;13.93;4.97;;;;;;;5.28;71.99;100846.44;5036016;28;20446;-85
2021/03/16 04:50:15;;;;;;;13.13;4.93;;;;;;;5.30;72.17;100851.69;5042092;28;20071;-84
2021/03/16 04:52:42;;;;;;;10.52;4.22;;;;;;;5.26;72.45;100855.25;5038250;28;20057;-85
2021/03/16 04:55:09;;;;;;;16.35;5.80;;;;;;;5.25;72.17;100857.00;5030904;28;20050;-84
2021/03/16 04:57:36;;;;;;;13.95;4.85;;;;;;;5.24;72.46;100857.91;5017048;28;20378;-85
2021/03/16 05:00:04;;;;;;;16.48;5.43;;;;;;;5.31;71.86;100860.44;5036919;28;20116;-87
2021/03/16 05:02:31;;;;;;;13.32;5.22;;;;;;;5.29;72.23;100860.44;5038100;28;20148;-84
2021/03/16 05:04:57;;;;;;;10.07;5.20;;;;;;;5.28;71.95;100872.72;5046833;28;20033;-88
2021/03/16 05:07:24;;;;;;;14.05;5.47;;;;;;;5.26;71.89;100869.25;5059105;28;20057;-85
2021/03/16 05:09:50;;;;;;;12.70;5.15;;;;;;;5.24;72.29;100868.41;5045984;28;20116;-85
2021/03/16 05:12:17;;;;;;;12.90;5.20;;;;;;;5.24;72.58;100872.78;5042540;28;20059;-85
2021/03/16 05:14:44;;;;;;;14.48;5.07;;;;;;;5.23;72.50;100877.16;5047164;28;20056;-85
2021/03/16 05:17:12;;;;;;;17.95;5.47;;;;;;;5.23;72.49;100879.78;5052556;28;20077;-82
2021/03/16 05:19:39;;;;;;;16.25;5.22;;;;;;;5.19;72.49;100882.53;5049706;28;20064;-85
2021/03/16 05:22:06;;;;;;;18.85;5.63;;;;;;;5.22;72.30;100890.31;5028452;28;20052;-85
2021/03/16 05:24:34;;;;;;;13.63;4.82;;;;;;;5.23;72.67;100885.03;5042279;28;20060;-85
2021/03/16 05:27:00;;;;;;;17.10;5.18;;;;;;;5.19;72.39;100879.91;5060523;28;20114;-86
2021/03/16 05:29:27;;;;;;;18.00;5.22;;;;;;;5.20;72.42;100882.47;5055470;28;20064;-85
2021/03/16 05:31:53;;;;;;;12.45;5.15;;;;;;;5.19;73.03;100895.66;5054380;28;20095;-87
2021/03/16 05:34:21;;;;;;;11.93;5.00;;;;;;;5.18;72.61;100891.28;5049532;28;20068;-84
2021/03/16 05:36:48;;;;;;;13.02;4.50;;;;;;;5.17;72.00;100898.31;5040302;28;20485;-84
2021/03/16 05:39:14;;;;;;;11.88;4.95;;;;;;;5.17;71.18;100897.44;5037396;28;20052;-82
2021/03/16 05:41:42;;;;;;;16.23;4.32;;;;;;;5.17;71.50;100892.19;5015677;28;20734;-82
2021/03/16 05:44:09;;;;;;;12.77;4.50;;;;;;;5.20;70.95;100897.34;5049451;28;20041;-87
2021/03/16 05:46:37;;;;;;;15.27;4.30;;;;;;;5.18;70.78;100904.41;5053242;28;20136;-84
2021/03/16 05:49:08;;;;;;;12.52;4.03;;;;;;;5.17;70.58;100902.69;5045303;28;20057;-85
2021/03/16 05:51:38;;;;;;;13.50;4.07;;;;;;;5.19;69.41;100906.16;5047292;28;20064;-84
2021/03/16 05:54:05;;;;;;;13.00;3.60;;;;;;;5.20;69.29;100906.09;5043671;28;20057;-83
2021/03/16 05:56:32;;;;;;;9.27;3.50;;;;;;;5.21;69.06;100899.94;5047546;28;20118;-86
2021/03/16 05:59:02;;;;;;;9.43;3.85;;;;;;;5.18;68.71;100902.66;5043857;28;20077;-82
2021/03/16 06:01:29;;;;;;;13.48;3.28;;;;;;;5.24;68.29;100910.41;5051723;28;20049;-85
2021/03/16 06:03:56;;;;;;;14.10;4.35;;;;;;;5.31;68.71;100908.56;5045206;28;20049;-83
2021/03/16 06:06:22;;;;;;;9.93;3.65;;;;;;;5.35;68.87;100912.88;5050011;28;20089;-86
2021/03/16 06:08:50;;;;;;;9.80;3.85;;;;;;;5.35;68.72;100922.50;5046576;28;20074;-83
2021/03/16 06:11:16;;;;;;;12.10;3.92;;;;;;;5.39;68.84;100926.78;5044525;28;20764;-85
2021/03/16 06:13:51;;;;;;;16.58;4.00;;;;;;;5.41;68.89;100932.88;5037177;28;20521;-85
2021/03/16 06:16:18;;;;;;;13.07;4.43;;;;;;;5.42;69.10;100934.63;5040558;28;20088;-86
2021/03/16 06:18:49;;;;;;;10.50;3.97;;;;;;;5.44;69.47;100932.84;5046709;28;20045;-87
2021/03/16 06:21:21;;;;;;;9.65;4.45;;;;;;;5.49;69.68;100937.13;5048227;28;20046;-87
2021/03/16 06:23:52;;;;;;;10.27;3.53;;;;;;;5.52;68.83;100930.94;5044019;28;20054;-86
2021/03/16 06:26:19;;;;;;;17.10;4.03;;;;;;;5.64;69.46;100942.13;5042639;28;20117;-84
2021/03/16 06:28:46;;;;;;;11.07;4.55;;;;;;;5.69;69.00;100938.50;5053022;28;20055;-85
2021/03/16 06:31:25;;;;;;;12.90;4.13;;;;;;;5.73;69.04;100940.19;5045360;28;20049;-85
2021/03/16 06:33:52;;;;;;;11.60;4.35;;;;;;;5.75;68.66;100948.91;5047676;28;20053;-85
2021/03/16 06:36:27;;;;;;;11.57;3.40;;;;;;;5.78;68.31;100955.00;5043297;28;20041;-85
2021/03/16 06:38:54;;;;;;;12.85;3.17;;;;;;;5.84;66.48;100946.97;5041902;28;20678;-84
2021/03/16 06:41:23;;;;;;;9.93;2.78;;;;;;;5.87;66.57;100952.19;5039964;28;20128;-83
2021/03/16 06:43:56;;;;;;;10.18;3.13;;;;;;;5.92;66.67;100955.63;5039755;28;20073;-85
2021/03/16 06:46:40;;;;;;;13.02;2.85;;;;;;;5.96;66.05;100959.94;5037634;28;20111;-86
2021/03/16 06:49:15;;;;;;;8.25;2.70;;;;;;;6.01;65.90;100972.97;5048322;28;20041;-88
2021/03/16 06:51:41;;;;;;;15.13;2.97;;;;;;;6.06;65.58;100972.91;5052515;28;20053;-85
2021/03/16 06:54:13;;;;;;;10.70;3.00;;;;;;;6.08;65.19;100963.22;5057543;28;20052;-84
2021/03/16 06:56:40;;;;;;;10.77;2.90;;;;;;;6.10;65.08;100977.22;5054769;28;20136;-86
2021/03/16 06:59:18;;;;;;;9.88;2.53;;;;;;;6.16;65.17;100977.06;5052822;28;20057;-87
2021/03/16 07:01:45;;;;;;;14.43;2.55;;;;;;;6.26;64.58;100983.91;5043955;28;20036;-84
2021/03/16 07:04:13;;;;;;;9.77;2.85;;;;;;;6.38;64.11;100993.31;5038719;28;20050;-84
2021/03/16 07:06:42;;;;;;;11.27;2.83;;;;;;;6.42;64.30;100987.97;5040206;28;20106;-86
2021/03/16 07:09:14;;;;;;;8.38;3.30;;;;;;;6.54;65.30;100990.34;5051208;28;20116;-84
2021/03/16 07:11:47;;;;;;;14.20;5.07;;;;;;;6.66;65.66;100999.72;5046303;28;20057;-85
2021/03/16 07:14:19;;;;;;;13.63;5.03;;;;;;;6.68;65.88;101008.47;5039050;28;20121;-84
2021/03/16 07:16:48;;;;;;;15.27;5.47;;;;;;;6.62;66.41;100992.78;5023859;28;20057;-84
2021/03/16 07:19:17;;;;;;;11.82;5.13;;;;;;;6.67;66.53;101001.47;5039530;28;20069;-84
2021/03/16 07:21:52;;;;;;;14.52;5.65;;;;;;;6.63;67.42;101005.03;5038209;28;20089;-85
2021/03/16 07:24:27;;;;;;;16.23;5.13;;;;;;;6.55;67.03;101005.22;5040419;28;20083;-86
2021/03/16 07:26:58;;;;;;;16.42;5.40;;;;;;;6.60;66.89;101005.13;5041778;28;20054;-86
2021/03/16 07:29:25;;;;;;;12.00;4.95;;;;;;;6.57;66.73;101013.97;5018574;28;20080;-86
2021/03/16 07:32:04;;;;;;;17.45;5.93;;;;;;;6.56;67.01;101012.22;5045602;28;20112;-86
2021/03/16 07:34:33;;;;;;;16.67;5.93;;;;;;;6.63;66.84;101010.31;5047260;28;20084;-86
2021/03/16 07:37:03;;;;;;;16.90;5.57;;;;;;;6.63;66.94;101013.81;5057426;28;20060;-84
2021/03/16 07:39:31;;;;;;;15.60;5.40;;;;;;;6.62;66.47;101022.59;5047747;28;20065;-85
2021/03/16 07:42:10;;;;;;;13.85;3.90;;;;;;;6.73;65.20;101027.66;5043109;28;20052;-84
2021/03/16 07:44:43;;;;;;;9.90;3.50;;;;;;;6.81;62.81;101024.84;5041757;28;20479;-85
2021/03/16 07:47:10;;;;;;;14.23;4.43;;;;;;;6.94;62.87;101028.94;5041516;28;20049;-86
2021/03/16 07:49:39;;;;;;;17.17;5.13;;;;;;;7.06;62.99;101031.31;5026365;28;20072;-84
2021/03/16 07:52:19;;;;;;;14.23;4.72;;;;;;;7.21;63.04;101030.97;5030089;28;20064;-85
2021/03/16 07:54:50;;;;;;;12.18;4.57;;;;;;;7.33;62.80;101030.69;5043660;28;20245;-86
2021/03/16 07:57:27;;;;;;;11.98;3.67;;;;;;;7.42;61.33;101034.00;5015925;28;20049;-86
2021/03/16 08:00:03;;;;;;;17.50;4.30;;;;;;;7.50;61.81;101034.69;5031313;28;20057;-88
2021/03/16 08:02:32;;;;;;;10.88;4.28;;;;;;;7.56;61.92;101037.16;5036215;28;20057;-85
2021/03/16 08:04:59;;;;;;;13.45;4.43;;;;;;;7.62;61.89;101037.88;5033943;28;20061;-85
2021/03/16 08:07:29;;;;;;;12.27;4.70;;;;;;;7.69;62.26;101035.97;5042289;28;20386;-86
2021/03/16 08:09:58;;;;;;;11.30;4.72;;;;;;;7.65;62.62;101040.44;5041793;28;20045;-85
2021/03/16 08:12:28;;;;;;;15.57;5.18;;;;;;;7.63;62.38;101039.63;5046410;28;20053;-86
2021/03/16 08:15:08;;;;;;;11.52;4.20;;;;;;;7.60;62.79;101038.81;5042550;28;20025;-86
2021/03/16 08:17:37;;;;;;;9.85;4.28;;;;;;;7.60;62.72;101044.97;5020084;28;20069;-86
2021/03/16 08:20:05;;;;;;;17.23;4.82;;;;;;;7.60;61.91;101025.63;5044402;28;20048;-86
2021/03/16 08:22:32;;;;;;;16.77;4.45;;;;;;;7.73;61.89;101042.88;5031814;28;20049;-87
2021/03/16 08:25:06;;;;;;;12.48;4.85;;;;;;;7.87;62.31;101047.84;5044447;28;20045;-88
2021/03/16 08:27:34;;;;;;;13.18;4.63;;;;;;;8.05;61.15;101047.34;5053330;28;20053;-86
2021/03/16 08:30:07;;;;;;;12.65;4.43;;;;;;;8.20;61.45;101039.00;5034312;28;20054;-86
2021/03/16 08:32:40;;;;;;;18.33;4.95;;;;;;;8.36;60.33;101043.00;5045502;28;20575;-86
2021/03/16 08:35:08;;;;;;;10.07;4.63;;;;;;;8.42;59.03;101041.97;5051464;28;20045;-88
2021/03/16 08:37:49;;;;;;;12.95;4.82;;;;;;;8.49;58.54;101048.81;5053053;28;20048;-86
2021/03/16 08:40:25;;;;;;;13.00;4.18;;;;;;;8.43;59.12;101048.97;5032239;28;20702;-85
2021/03/16 08:42:52;;;;;;;11.55;4.43;;;;;;;8.38;58.64;101051.75;5054386;28;20045;-86
2021/03/16 08:45:32;;;;;;;11.57;3.95;;;;;;;8.29;58.07;101049.34;5054075;28;20588;-84
2021/03/16 08:47:58;;;;;;;9.93;3.30;;;;;;;8.26;58.15;101059.97;5049828;28;20052;-86
2021/03/16 08:50:43;;;;;;;12.20;3.80;;;;;;;8.23;58.27;101064.44;5060377;28;20053;-83
2021/03/16 08:53:15;;;;;;;14.80;4.20;;;;;;;8.28;58.90;101055.50;5064308;28;20112;-85
2021/03/16 08:55:53;;;;;;;14.07;4.80;;;;;;;8.33;59.30;101058.06;5050797;28;20049;-85
2021/03/16 08:58:22;;;;;;;13.65;5.47;;;;;;;8.34;59.90;101062.44;5044093;28;20041;-85
2021/03/16 09:00:49;;;;;;;13.65;5.70;;;;;;;8.32;60.52;101066.91;5049957;28;20045;-85
2021/03/16 09:03:16;;;;;;;13.13;5.18;;;;;;;8.26;60.78;101061.75;5054590;28;20064;-87
2021/03/16 09:05:43;;;;;;;16.15;5.50;;;;;;;8.24;60.66;101068.81;5052473;28;20050;-86
2021/03/16 09:08:11;;;;;;;15.25;5.18;;;;;;;8.18;60.31;101064.59;5048590;28;20121;-86
2021/03/16 09:10:38;;;;;;;15.77;5.00;;;;;;;8.15;60.78;101067.31;5049654;28;20123;-87
2021/03/16 09:13:07;;;;;;;9.80;5.03;;;;;;;8.18;60.14;101063.72;5027366;28;20061;-87
2021/03/16 09:15:33;;;;;;;6.88;3.60;;;;;;;8.19;58.37;101075.97;5050042;28;20105;-86
2021/03/16 09:18:05;;;;;;;9.00;3.60;;;;;;;8.19;58.28;101068.06;5047664;28;20057;-86
2021/03/16 09:20:36;;;;;;;11.68;3.65;;;;;;;8.20;56.49;101072.44;5052570;28;20053;-84
2021/03/16 09:23:11;;;;;;;11.15;4.07;;;;;;;8.11;56.91;101057.72;5041958;28;20117;-85
2021/03/16 09:25:44;;;;;;;7.35;3.17;;;;;;;8.14;56.46;101064.72;5017815;28;20057;-85
2021/03/16 09:28:20;;;;;;;10.00;3.10;;;;;;;8.41;55.95;101066.63;5033892;28;20528;-86
2021/03/16 09:30:53;;;;;;;9.70;3.25;;;;;;;8.77;55.21;101065.59;5016661;28;20041;-86
2021/03/16 09:33:23;;;;;;;10.13;3.08;;;;;;;9.12;53.72;101055.78;5053969;28;20131;-86
2021/03/16 09:35:59;;;;;;;7.60;2.20;;;;;;;9.35;52.05;101053.28;5053497;28;20041;-86
2021/03/16 09:38:29;;;;;;;5.35;2.25;;;;;;;9.58;51.03;101054.34;5057128;28;20073;-87
2021/03/16 09:40:58;;;;;;;10.32;2.65;;;;;;;9.69;50.07;101049.56;5058401;28;20037;-86
2021/03/16 09:43:32;;;;;;;7.63;2.78;;;;;;;9.76;50.28;101048.41;5049884;28;20054;-85
2021/03/16 09:46:03;;;;;;;7.53;2.55;;;;;;;9.67;49.91;101056.66;5043916;28;20061;-86
2021/03/16 09:48:31;;;;;;;7.15;2.70;;;;;;;9.60;49.58;101058.63;5052133;28;20061;-87
2021/03/16 09:51:19;;;;;;;8.20;3.20;;;;;;;9.54;50.39;101055.34;5053358;28;20092;-86
2021/03/16 09:53:57;;;;;;;8.82;3.10;;;;;;;9.43;50.80;101053.91;5033648;28;20053;-86
2021/03/16 09:56:36;;;;;;;6.68;2.50;;;;;;;9.34;49.32;101059.47;5049330;28;20141;-83
2021/03/16 09:59:03;;;;;;;4.35;2.40;;;;;;;9.31;49.83;101061.34;5057891;28;20041;-85
2021/03/16 10:01:42;;;;;;;8.27;2.53;;;;;;;9.38;50.47;101055.81;5051047;28;20096;-87
2021/03/16 10:04:13;;;;;;;10.38;2.70;;;;;;;9.46;49.95;101059.06;5040519;28;20056;-85
2021/03/16 10:06:42;;;;;;;8.88;2.65;;;;;;;9.49;49.85;101051.06;5027619;28;20053;-85
2021/03/16 10:09:17;;;;;;;6.25;2.45;;;;;;;9.45;48.52;101059.13;5043618;28;20061;-87
2021/03/16 10:11:47;;;;;;;6.25;2.70;;;;;;;9.41;48.59;101058.38;5040355;28;20053;-85
2021/03/16 10:14:31;;;;;;;5.93;2.10;;;;;;;9.30;48.90;101059.59;5035105;28;20077;-84
2021/03/16 10:16:58;;;;;;;7.03;1.88;;;;;;;9.25;49.57;101059.78;5039643;28;20140;-89
2021/03/16 10:19:25;;;;;;;5.57;2.20;;;;;;;9.22;48.26;101065.16;5044295;28;20064;-84
2021/03/16 10:21:52;;;;;;;10.25;2.30;;;;;;;9.20;48.24;101064.31;5047161;28;20140;-85
2021/03/16 10:24:27;;;;;;;5.43;2.08;;;;;;;9.20;48.85;101064.31;5045764;28;20084;-89
2021/03/16 10:27:00;;;;;;;5.70;2.38;;;;;;;9.21;49.32;101065.19;5034619;28;20037;-89
2021/03/16 10:29:28;;;;;;;4.45;2.15;;;;;;;9.17;48.37;101069.69;5040253;28;20068;-87
2021/03/16 10:31:55;;;;;;;5.40;2.40;;;;;;;9.03;47.61;101067.47;5041927;28;20122;-88
2021/03/16 10:34:22;;;;;;;7.00;2.17;;;;;;;9.00;48.44;101066.69;5055683;28;20048;-85
2021/03/16 10:36:48;;;;;;;6.20;2.10;;;;;;;8.95;48.47;101060.69;5050396;28;20049;-85
2021/03/16 10:39:14;;;;;;;6.10;2.50;;;;;;;8.99;47.92;101060.53;5040199;28;20049;-85
2021/03/16 10:41:41;;;;;;;8.82;2.75;;;;;;;9.01;48.20;101061.38;5043865;28;20105;-86
2021/03/16 10:44:07;;;;;;;5.93;2.45;;;;;;;9.08;48.73;101065.56;5033212;28;20080;-88
2021/03/16 10:46:40;;;;;;;9.32;2.97;;;;;;;9.15;47.98;101058.31;5042214;28;20045;-88
2021/03/16 10:49:08;;;;;;;7.10;3.17;;;;;;;9.21;48.05;101063.41;5043287;28;20072;-86
2021/03/16 10:51:35;;;;;;;8.02;3.50;;;;;;;9.22;48.66;101059.00;5046858;28;20084;-85
2021/03/16 10:54:01;;;;;;;7.95;3.30;;;;;;;9.23;50.17;101051.03;5043749;28;20049;-85
2021/03/16 10:56:28;;;;;;;5.38;3.30;;;;;;;9.33;49.69;101055.09;5027727;28;20576;-85
2021/03/16 10:58:54;;;;;;;9.13;3.33;;;;;;;9.38;50.26;101050.53;5038225;28;20133;-88
2021/03/16 11:01:21;;;;;;;7.93;3.90;;;;;;;9.48;50.65;101049.31;5041526;28;20082;-86
2021/03/16 11:03:48;;;;;;;9.63;4.57;;;;;;;9.57;50.83;101058.75;5048816;28;20053;-86
2021/03/16 11:06:15;;;;;;;10.57;4.13;;;;;;;9.72;50.56;101058.25;5041958;28;20060;-84
2021/03/16 11:08:43;;;;;;;7.97;3.70;;;;;;;9.91;48.77;101055.00;5039506;28;20132;-88
2021/03/16 11:11:10;;;;;;;10.60;3.65;;;;;;;9.73;49.05;101056.47;5020924;28;20053;-88
2021/03/16 11:13:36;;;;;;;11.90;3.67;;;;;;;9.63;49.39;101055.03;5033550;28;20115;-85
2021/03/16 11:16:03;;;;;;;9.27;3.30;;;;;;;9.58;48.84;101064.91;5039055;28;20057;-85
2021/03/16 11:18:31;;;;;;;9.27;4.22;;;;;;;9.55;49.52;101063.22;5039487;28;20064;-85
2021/03/16 11:20:58;;;;;;;4.68;3.10;;;;;;;9.63;49.22;101062.97;5025269;28;20053;-85
2021/03/16 11:23:27;;;;;;;5.47;3.17;;;;;;;9.73;49.04;101057.34;5034036;28;20127;-85
2021/03/16 11:25:53;;;;;;;6.82;3.05;;;;;;;9.79;48.09;101051.81;5040577;28;20084;-84
2021/03/16 11:28:21;;;;;;;3.72;2.33;;;;;;;9.79;46.52;101048.31;5033381;28;20073;-87
2021/03/16 11:30:47;;;;;;;5.97;2.95;;;;;;;9.78;46.65;101047.44;5041457;28;20404;-84
2021/03/16 11:33:16;;;;;;;6.35;2.30;;;;;;;9.79;45.86;101054.47;5040713;28;20080;-85
2021/03/16 11:35:43;;;;;;;6.10;2.60;;;;;;;9.79;46.44;101053.59;5046100;28;20061;-87
2021/03/16 11:38:22;;;;;;;5.55;2.35;;;;;;;9.81;46.04;101041.19;5048630;28;20049;-87
2021/03/16 11:40:49;;;;;;;5.53;2.47;;;;;;;9.85;46.84;101049.00;5043003;28;20073;-87